Terminal Aerodrome Forecast
Issued by NWS Pocatello, ID

Home | Current Version | Previous Version | Text Only | Print | Product List | Glossary On
Versions: 1 2 3 4 5 6 7 8 9 10 11 12 13 14 15 16 17 18 19 20 21 22 23 24 25 26 27 28
000
FTUS45 KPIH 221700
TAFIDA
TAF
KIDA 221724Z 2218/2318 21011KT P6SM BKN100
     FM222000 26012G22KT P6SM SCT015 BKN080
     FM230300 26010KT P6SM SCT080
     FM230900 VRB05KT 6SM BR BKN006=

USA.gov is the U.S. government's official web portal to all federal, state and local government web resources and services.